Time;durP1;ratioP1;P1;durP2;ratioP2;P2;SDS_P1;SDS_P2;PMS_P1;PMS_P2;Temp;Humidity;BMP_temperature;BMP_pressure;BME280_temperature;BME280_humidity;BME280_pressure;Samples;Min_cycle;Max_cycle;Signal;HPM_P1;HPM_P2
2023/09/20 00:00:07;;;;;;;8.17;7.57;;;13.50;99.90;;;;;;4982994;28;20226;-79
2023/09/20 00:02:40;;;;;;;8.73;8.03;;;13.50;99.90;;;;;;4971939;28;20257;-79
2023/09/20 00:05:14;;;;;;;9.40;8.70;;;13.40;99.90;;;;;;4972167;28;20287;-79
2023/09/20 00:07:41;;;;;;;9.60;8.90;;;13.40;99.90;;;;;;4972508;28;20249;-80
2023/09/20 00:10:12;;;;;;;9.33;8.73;;;13.40;99.90;;;;;;4982318;28;20229;-78
2023/09/20 00:12:40;;;;;;;9.33;8.63;;;13.40;99.90;;;;;;4970070;28;20769;-80
2023/09/20 00:15:08;;;;;;;9.53;8.83;;;13.40;99.90;;;;;;4976028;28;20581;-80
2023/09/20 00:17:36;;;;;;;9.30;8.60;;;13.30;99.90;;;;;;4976958;28;20201;-80
2023/09/20 00:20:11;;;;;;;5.27;4.87;;;13.30;99.90;;;;;;4975693;28;20237;-79
2023/09/20 00:22:41;;;;;;;4.97;4.50;;;13.30;99.90;;;;;;4969337;28;20194;-79
2023/09/20 00:25:09;;;;;;;4.90;4.50;;;13.30;99.90;;;;;;4983725;28;20665;-80
2023/09/20 00:27:35;;;;;;;5.47;4.97;;;13.30;99.90;;;;;;4975818;28;20681;-79
2023/09/20 00:30:06;;;;;;;5.57;4.57;;;13.30;99.90;;;;;;4975534;28;20724;-79
2023/09/20 00:32:33;;;;;;;5.43;4.93;;;13.20;99.90;;;;;;4975900;28;20213;-79
2023/09/20 00:35:00;;;;;;;6.50;5.80;;;13.20;99.90;;;;;;4975214;28;20202;-79
2023/09/20 00:37:27;;;;;;;5.57;5.00;;;13.20;99.90;;;;;;4976060;28;20202;-80
2023/09/20 00:39:55;;;;;;;4.90;4.50;;;13.20;99.90;;;;;;4975170;28;20226;-79
2023/09/20 00:42:22;;;;;;;5.10;4.70;;;13.10;99.90;;;;;;4975100;28;20221;-80
2023/09/20 00:44:49;;;;;;;5.33;4.83;;;13.10;99.90;;;;;;4975180;28;20213;-79
2023/09/20 00:47:16;;;;;;;4.67;4.30;;;13.10;99.90;;;;;;4974778;28;20202;-78
2023/09/20 00:49:45;;;;;;;4.80;4.40;;;13.10;99.90;;;;;;4983711;28;20232;-79
2023/09/20 00:52:13;;;;;;;4.73;4.40;;;13.10;99.90;;;;;;4975029;28;20222;-78
2023/09/20 00:54:42;;;;;;;5.23;4.73;;;13.10;99.90;;;;;;4976438;28;20222;-79
2023/09/20 00:57:11;;;;;;;5.00;4.60;;;13.10;99.90;;;;;;4974966;28;20292;-80
2023/09/20 00:59:40;;;;;;;4.80;4.40;;;13.20;99.90;;;;;;4976433;28;20222;-79
2023/09/20 01:02:07;;;;;;;4.40;4.00;;;13.10;99.90;;;;;;4974691;28;20206;-79
2023/09/20 01:04:36;;;;;;;6.87;6.47;;;13.10;99.90;;;;;;4974641;28;20246;-79
2023/09/20 01:07:04;;;;;;;4.50;4.20;;;13.10;99.90;;;;;;4982825;28;20204;-78
2023/09/20 01:09:31;;;;;;;4.53;4.20;;;13.10;99.90;;;;;;4974946;28;20213;-78
2023/09/20 01:11:59;;;;;;;4.53;4.23;;;13.10;99.90;;;;;;4975194;28;20704;-79
2023/09/20 01:14:27;;;;;;;4.53;4.17;;;13.10;99.90;;;;;;4974561;28;20264;-79
2023/09/20 01:16:54;;;;;;;4.40;4.10;;;13.00;99.90;;;;;;4974776;28;20198;-79
2023/09/20 01:19:21;;;;;;;4.60;4.27;;;13.00;99.90;;;;;;4974734;28;20234;-79
2023/09/20 01:21:49;;;;;;;5.20;4.80;;;13.00;99.90;;;;;;4974428;28;20208;-79
2023/09/20 01:24:20;;;;;;;4.30;4.00;;;13.10;99.90;;;;;;4984197;28;20228;-80
2023/09/20 01:26:50;;;;;;;4.60;4.30;;;13.00;99.90;;;;;;4977382;28;20233;-79
2023/09/20 01:29:17;;;;;;;4.33;4.03;;;13.00;99.90;;;;;;4974479;28;20221;-79
2023/09/20 01:31:44;;;;;;;4.47;4.10;;;13.00;99.90;;;;;;4974201;28;20208;-79
2023/09/20 01:34:11;;;;;;;4.40;4.10;;;13.00;99.90;;;;;;4974124;28;20230;-78
2023/09/20 01:36:37;;;;;;;4.87;4.47;;;13.10;99.90;;;;;;4974196;28;20204;-79
2023/09/20 01:39:08;;;;;;;4.80;4.43;;;13.00;99.90;;;;;;4974303;28;20233;-80
2023/09/20 01:41:35;;;;;;;4.77;4.40;;;13.00;99.90;;;;;;4966732;28;20212;-80
2023/09/20 01:44:04;;;;;;;4.23;3.93;;;13.00;99.90;;;;;;4974313;28;20226;-79
2023/09/20 01:46:33;;;;;;;4.27;3.97;;;13.00;99.90;;;;;;4975061;28;20289;-80
2023/09/20 01:49:00;;;;;;;4.47;4.17;;;13.00;99.90;;;;;;4973959;28;20214;-79
2023/09/20 01:51:27;;;;;;;4.50;4.20;;;13.00;99.90;;;;;;4974181;28;20222;-79
2023/09/20 01:53:55;;;;;;;5.20;4.80;;;13.00;99.90;;;;;;4979732;28;20639;-80
2023/09/20 01:56:25;;;;;;;4.90;4.50;;;12.90;99.90;;;;;;4975313;28;20229;-79
2023/09/20 01:58:52;;;;;;;5.60;4.97;;;12.90;99.90;;;;;;4973902;28;20220;-78
2023/09/20 02:01:19;;;;;;;4.83;4.43;;;12.80;99.90;;;;;;4973512;28;20297;-79
2023/09/20 02:03:49;;;;;;;4.30;4.00;;;12.80;99.90;;;;;;4973823;28;20205;-80
2023/09/20 02:06:16;;;;;;;4.23;3.83;;;12.80;99.90;;;;;;4973571;28;20648;-79
2023/09/20 02:08:43;;;;;;;3.73;3.43;;;12.70;99.90;;;;;;4971708;28;20197;-79
2023/09/20 02:11:09;;;;;;;3.90;3.60;;;12.70;99.90;;;;;;4977636;28;20228;-78
2023/09/20 02:13:38;;;;;;;4.03;3.50;;;12.60;99.90;;;;;;4982037;28;20701;-80
2023/09/20 02:16:06;;;;;;;4.10;3.70;;;12.50;99.90;;;;;;4973722;28;20623;-79
2023/09/20 02:18:33;;;;;;;5.07;4.67;;;12.50;99.90;;;;;;4974691;28;20198;-79
2023/09/20 02:21:00;;;;;;;9.73;9.13;;;12.40;99.90;;;;;;4973723;28;20229;-79
2023/09/20 02:23:27;;;;;;;9.80;9.20;;;12.40;99.90;;;;;;4973199;28;20338;-79
2023/09/20 02:25:55;;;;;;;9.73;8.97;;;12.40;99.90;;;;;;4973088;28;20206;-79
2023/09/20 02:28:22;;;;;;;4.40;4.00;;;12.40;99.90;;;;;;4974848;28;20205;-79
2023/09/20 02:30:50;;;;;;;4.97;4.57;;;12.50;99.90;;;;;;4973923;28;20224;-79
2023/09/20 02:33:19;;;;;;;4.27;3.97;;;12.40;99.90;;;;;;4972558;28;20240;-79
2023/09/20 02:35:46;;;;;;;4.70;4.40;;;12.50;99.90;;;;;;4973268;28;20341;-79
2023/09/20 02:38:12;;;;;;;6.20;5.80;;;12.50;99.90;;;;;;4973029;28;20218;-78
2023/09/20 02:40:39;;;;;;;4.40;4.10;;;12.50;99.90;;;;;;4966971;28;20227;-79
2023/09/20 02:43:08;;;;;;;8.97;8.37;;;12.50;99.90;;;;;;4972863;28;20225;-80
2023/09/20 02:45:36;;;;;;;5.20;4.43;;;12.40;99.90;;;;;;4973781;28;20191;-79
2023/09/20 02:48:06;;;;;;;5.00;4.67;;;12.40;99.90;;;;;;4973083;28;20244;-79
2023/09/20 02:50:37;;;;;;;6.30;5.90;;;12.40;99.90;;;;;;4973924;28;20602;-81
2023/09/20 02:53:04;;;;;;;5.13;4.83;;;12.40;99.90;;;;;;4973130;28;20229;-79
2023/09/20 02:55:32;;;;;;;6.07;5.50;;;12.40;99.90;;;;;;4974338;28;20587;-78
2023/09/20 02:58:00;;;;;;;5.00;4.60;;;12.40;99.90;;;;;;4986385;28;20212;-80
2023/09/20 03:00:31;;;;;;;6.30;5.90;;;12.40;99.90;;;;;;4976641;28;20312;-80
2023/09/20 03:03:00;;;;;;;7.13;6.63;;;12.40;99.90;;;;;;4977892;28;20202;-80
2023/09/20 03:05:30;;;;;;;4.80;4.40;;;12.40;99.90;;;;;;4975827;28;20284;-79
2023/09/20 03:07:58;;;;;;;4.77;4.47;;;12.40;99.90;;;;;;4975940;28;20209;-79
2023/09/20 03:10:27;;;;;;;10.43;9.83;;;12.40;99.90;;;;;;4970633;28;20225;-81
2023/09/20 03:12:57;;;;;;;3.87;3.47;;;12.40;99.90;;;;;;4969476;28;20209;-81
2023/09/20 03:15:28;;;;;;;3.70;3.40;;;12.40;99.90;;;;;;4975078;28;20216;-79
2023/09/20 03:17:58;;;;;;;6.17;5.67;;;12.50;99.90;;;;;;4984541;28;20238;-80
2023/09/20 03:20:26;;;;;;;5.00;4.23;;;12.40;99.90;;;;;;4973326;28;20708;-81
2023/09/20 03:23:03;;;;;;;4.07;3.77;;;12.40;99.90;;;;;;4973940;28;20557;-79
2023/09/20 03:25:36;;;;;;;3.80;3.50;;;12.40;99.90;;;;;;4973966;28;20204;-79
2023/09/20 03:28:04;;;;;;;7.90;7.23;;;12.40;99.90;;;;;;4970960;28;20290;-79
2023/09/20 03:30:33;;;;;;;10.60;9.90;;;12.40;99.90;;;;;;4964850;28;20739;-81
2023/09/20 03:33:00;;;;;;;5.53;4.13;;;12.40;99.90;;;;;;4972698;28;20241;-82
2023/09/20 03:35:30;;;;;;;4.80;4.30;;;12.30;99.90;;;;;;4971442;28;20207;-81
2023/09/20 03:37:57;;;;;;;4.30;3.90;;;12.30;99.90;;;;;;4968561;28;20230;-79
2023/09/20 03:40:28;;;;;;;4.67;4.10;;;12.30;99.90;;;;;;4965465;28;20225;-79
2023/09/20 03:42:56;;;;;;;5.00;4.10;;;12.20;99.90;;;;;;4973072;28;20205;-79
2023/09/20 03:45:26;;;;;;;4.83;4.43;;;12.20;99.90;;;;;;4971328;28;20196;-79
2023/09/20 03:47:56;;;;;;;4.20;3.80;;;12.20;99.90;;;;;;4975620;28;20705;-80
2023/09/20 03:50:24;;;;;;;4.33;4.00;;;12.20;99.90;;;;;;4974231;28;20269;-79
2023/09/20 03:52:52;;;;;;;5.23;4.13;;;12.10;99.90;;;;;;4975597;28;20236;-80
2023/09/20 03:55:20;;;;;;;5.03;4.63;;;12.10;99.90;;;;;;4972250;28;20681;-77
2023/09/20 03:57:49;;;;;;;6.40;5.90;;;12.10;99.90;;;;;;4976285;28;20207;-79
2023/09/20 04:00:18;;;;;;;8.03;6.37;;;12.10;99.90;;;;;;4973620;28;20704;-79
2023/09/20 04:02:48;;;;;;;9.37;8.67;;;12.10;99.90;;;;;;4970887;28;20631;-81
2023/09/20 04:05:16;;;;;;;6.57;6.07;;;12.00;99.90;;;;;;4984064;28;20200;-80
2023/09/20 04:07:50;;;;;;;6.60;6.00;;;12.00;99.90;;;;;;4977411;28;20215;-80
2023/09/20 04:10:18;;;;;;;5.90;5.40;;;12.00;99.90;;;;;;4978134;28;20604;-79
2023/09/20 04:12:46;;;;;;;5.63;5.13;;;12.00;99.90;;;;;;4977853;28;20213;-81
2023/09/20 04:15:15;;;;;;;6.90;5.67;;;12.00;99.90;;;;;;4975950;28;20229;-81
2023/09/20 04:17:41;;;;;;;7.50;5.77;;;12.00;99.90;;;;;;4979747;28;20203;-78
2023/09/20 04:20:09;;;;;;;6.00;5.40;;;11.90;99.90;;;;;;4987938;28;20243;-77
2023/09/20 04:22:41;;;;;;;6.90;6.30;;;11.90;99.90;;;;;;4975689;28;20228;-77
2023/09/20 04:25:10;;;;;;;6.50;6.00;;;11.90;99.90;;;;;;4976036;28;20222;-78
2023/09/20 04:27:41;;;;;;;6.63;6.03;;;11.80;99.90;;;;;;4973477;28;20291;-83
2023/09/20 04:30:09;;;;;;;6.03;5.63;;;11.80;99.90;;;;;;4987136;28;20229;-79
2023/09/20 04:32:48;;;;;;;6.83;6.27;;;11.90;99.90;;;;;;4977225;28;20287;-78
2023/09/20 04:35:23;;;;;;;6.07;5.50;;;11.80;99.90;;;;;;4973148;28;20238;-79
2023/09/20 04:37:50;;;;;;;5.23;4.80;;;11.80;99.90;;;;;;4973905;28;20221;-78
2023/09/20 04:40:18;;;;;;;7.70;6.80;;;11.80;99.90;;;;;;4974370;28;20251;-79
2023/09/20 04:42:50;;;;;;;5.73;4.67;;;11.70;99.90;;;;;;4977570;28;20199;-83
2023/09/20 04:45:19;;;;;;;8.07;7.47;;;11.70;99.90;;;;;;4978960;28;20682;-77
2023/09/20 04:47:48;;;;;;;8.37;7.60;;;11.60;99.90;;;;;;4979201;28;20205;-77
2023/09/20 04:50:16;;;;;;;9.00;8.20;;;11.60;99.90;;;;;;4977065;28;20218;-79
2023/09/20 04:52:45;;;;;;;4.73;4.10;;;11.60;99.90;;;;;;4975268;28;20204;-78
2023/09/20 04:55:12;;;;;;;6.20;5.10;;;11.70;99.90;;;;;;4975848;28;20721;-80
2023/09/20 04:57:39;;;;;;;5.07;4.57;;;11.70;99.90;;;;;;4975570;28;20202;-79
2023/09/20 05:00:09;;;;;;;4.63;4.10;;;11.70;99.90;;;;;;4977700;28;20211;-79
2023/09/20 05:02:36;;;;;;;6.10;4.30;;;11.80;99.90;;;;;;4986180;28;20198;-78
2023/09/20 05:05:05;;;;;;;6.07;4.40;;;11.80;99.90;;;;;;4978516;28;20200;-77
2023/09/20 05:07:32;;;;;;;5.73;4.93;;;11.80;99.90;;;;;;4978183;28;20211;-77
2023/09/20 05:10:01;;;;;;;5.00;4.53;;;11.90;99.90;;;;;;4974735;28;20725;-77
2023/09/20 05:12:29;;;;;;;4.40;4.00;;;11.90;99.90;;;;;;4977590;28;20686;-78
2023/09/20 05:14:56;;;;;;;5.13;4.33;;;11.90;99.90;;;;;;4977055;28;20229;-77
2023/09/20 05:17:23;;;;;;;5.13;4.37;;;11.90;99.90;;;;;;4977892;28;20255;-77
2023/09/20 05:19:50;;;;;;;5.97;4.60;;;11.90;99.90;;;;;;4970995;28;20319;-78
2023/09/20 05:22:19;;;;;;;5.03;4.60;;;11.90;99.90;;;;;;4978543;28;20505;-78
2023/09/20 05:24:45;;;;;;;6.43;5.33;;;11.90;99.90;;;;;;4977696;28;20218;-77
2023/09/20 05:27:12;;;;;;;6.33;5.70;;;11.90;99.90;;;;;;4978612;28;20204;-77
2023/09/20 05:29:39;;;;;;;5.83;5.23;;;12.00;99.90;;;;;;4980436;28;20279;-77
2023/09/20 05:32:07;;;;;;;5.23;4.73;;;12.00;99.90;;;;;;4981583;28;20206;-77
2023/09/20 05:34:36;;;;;;;5.97;4.83;;;12.10;99.90;;;;;;4975721;28;20563;-77
2023/09/20 05:37:03;;;;;;;6.63;4.73;;;12.10;99.90;;;;;;4978942;28;20655;-77
2023/09/20 05:39:32;;;;;;;5.50;4.30;;;12.20;99.90;;;;;;4981157;28;20244;-77
2023/09/20 05:41:59;;;;;;;4.60;4.20;;;12.20;99.90;;;;;;4974529;28;20251;-80
2023/09/20 05:44:26;;;;;;;4.73;4.33;;;12.20;99.90;;;;;;4979954;28;20248;-77
2023/09/20 05:46:53;;;;;;;5.37;4.87;;;12.30;99.90;;;;;;4989335;28;20233;-78
2023/09/20 05:49:21;;;;;;;5.70;5.10;;;12.40;99.90;;;;;;4976928;28;20228;-77
2023/09/20 05:51:50;;;;;;;6.23;5.03;;;12.40;99.90;;;;;;4983320;28;20301;-77
2023/09/20 05:54:19;;;;;;;6.83;6.13;;;12.50;99.90;;;;;;4977435;28;20213;-77
2023/09/20 05:56:47;;;;;;;5.77;5.27;;;12.60;99.90;;;;;;4982940;28;20202;-77
2023/09/20 05:59:17;;;;;;;6.00;5.50;;;12.70;99.90;;;;;;4977800;28;20251;-77
2023/09/20 06:01:45;;;;;;;5.60;5.10;;;12.80;99.90;;;;;;4976663;28;20257;-79
2023/09/20 06:04:11;;;;;;;8.10;7.43;;;12.90;99.90;;;;;;4974892;28;20273;-77
2023/09/20 06:06:38;;;;;;;5.20;4.70;;;13.00;99.90;;;;;;4983806;28;20197;-77
2023/09/20 06:09:06;;;;;;;5.30;4.80;;;13.00;99.90;;;;;;4982567;28;20559;-77
2023/09/20 06:11:33;;;;;;;4.90;4.27;;;13.10;99.90;;;;;;4983511;28;20190;-76
2023/09/20 06:14:01;;;;;;;5.70;4.20;;;13.00;99.90;;;;;;4991963;28;20217;-78
2023/09/20 06:16:28;;;;;;;6.13;4.20;;;13.00;99.90;;;;;;4988201;28;20273;-79
2023/09/20 06:18:55;;;;;;;4.33;3.93;;;13.10;99.90;;;;;;4996508;28;20197;-78
2023/09/20 06:21:23;;;;;;;6.33;4.40;;;13.20;99.90;;;;;;4980351;28;20206;-79
2023/09/20 06:23:49;;;;;;;5.50;4.53;;;13.20;99.90;;;;;;4977439;28;20261;-78
2023/09/20 06:26:16;;;;;;;10.40;9.50;;;13.30;99.90;;;;;;4987262;28;20218;-78
2023/09/20 06:28:46;;;;;;;9.87;9.17;;;13.30;99.90;;;;;;4990728;28;20193;-85
2023/09/20 06:31:16;;;;;;;5.63;3.97;;;13.40;99.90;;;;;;4986998;28;20244;-80
2023/09/20 06:33:46;;;;;;;4.77;4.33;;;13.50;99.90;;;;;;4985115;28;20233;-79
2023/09/20 06:36:17;;;;;;;4.30;3.93;;;13.60;99.90;;;;;;4983547;28;20205;-80
2023/09/20 06:38:44;;;;;;;4.90;4.07;;;13.70;99.90;;;;;;4987958;28;20206;-79
2023/09/20 06:41:12;;;;;;;7.43;6.83;;;13.70;99.90;;;;;;4977109;28;20221;-80
2023/09/20 06:43:38;;;;;;;4.90;4.30;;;13.70;99.90;;;;;;4979523;28;20201;-79
2023/09/20 06:46:07;;;;;;;6.30;5.77;;;13.80;99.90;;;;;;4969714;28;20253;-80
2023/09/20 06:48:37;;;;;;;9.90;9.20;;;13.80;99.90;;;;;;4963692;28;20202;-80
2023/09/20 06:51:04;;;;;;;10.00;9.23;;;13.90;99.90;;;;;;4960935;28;20213;-79
2023/09/20 06:53:31;;;;;;;9.60;9.00;;;14.10;99.90;;;;;;4967968;28;20290;-80
2023/09/20 06:55:59;;;;;;;9.93;9.23;;;14.20;99.90;;;;;;4973073;28;20349;-80
2023/09/20 06:58:26;;;;;;;9.70;9.00;;;14.30;99.90;;;;;;4986481;28;20214;-80
2023/09/20 07:00:53;;;;;;;10.73;9.93;;;14.50;99.90;;;;;;4986711;28;20230;-79
2023/09/20 07:03:20;;;;;;;10.23;9.53;;;14.70;99.90;;;;;;4979471;28;20228;-79
2023/09/20 07:05:50;;;;;;;9.70;9.10;;;15.00;99.90;;;;;;4983400;28;20204;-80
2023/09/20 07:08:21;;;;;;;11.63;10.73;;;15.40;99.90;;;;;;4980172;28;20571;-79
2023/09/20 07:10:50;;;;;;;11.27;10.27;;;15.90;99.90;;;;;;4987629;28;20229;-79
2023/09/20 07:13:18;;;;;;;10.30;9.50;;;16.40;99.90;;;;;;4980453;28;20215;-80
2023/09/20 07:15:46;;;;;;;4.60;3.57;;;17.00;99.90;;;;;;4984798;28;20635;-79
2023/09/20 07:18:13;;;;;;;6.07;5.57;;;17.50;99.90;;;;;;4984622;28;20211;-79
2023/09/20 07:20:40;;;;;;;9.37;4.23;;;17.90;99.90;;;;;;4985020;28;20272;-78
2023/09/20 07:23:12;;;;;;;10.13;9.43;;;18.40;99.90;;;;;;4977846;28;20675;-79
2023/09/20 07:25:40;;;;;;;6.80;6.30;;;18.70;99.90;;;;;;4992703;28;20203;-79
2023/09/20 07:28:07;;;;;;;4.80;4.40;;;19.30;99.90;;;;;;4981232;28;20189;-79
2023/09/20 07:30:40;;;;;;;8.00;7.33;;;19.70;99.90;;;;;;4987467;28;20216;-80
2023/09/20 07:33:11;;;;;;;5.10;4.43;;;20.10;99.90;;;;;;4981709;28;20682;-80
2023/09/20 07:35:39;;;;;;;4.37;3.97;;;20.50;99.90;;;;;;4977677;28;20214;-79
2023/09/20 07:38:17;;;;;;;7.97;7.30;;;20.70;99.90;;;;;;4967128;28;20226;-79
2023/09/20 07:40:50;;;;;;;8.83;8.10;;;21.10;99.90;;;;;;4970650;28;20277;-79
2023/09/20 07:43:18;;;;;;;8.23;7.63;;;21.30;99.90;;;;;;4982327;28;20228;-81
2023/09/20 07:45:45;;;;;;;8.03;7.47;;;21.30;99.90;;;;;;4976940;28;20197;-79
2023/09/20 07:48:21;;;;;;;8.50;7.90;;;21.00;99.90;;;;;;4973793;28;20213;-80
2023/09/20 07:50:50;;;;;;;3.70;3.40;;;20.70;99.90;;;;;;4971964;28;20225;-81
2023/09/20 07:53:20;;;;;;;7.17;6.60;;;20.40;99.90;;;;;;4974852;28;20247;-81
2023/09/20 07:55:58;;;;;;;3.70;3.37;;;20.10;99.90;;;;;;4981399;28;20225;-81
2023/09/20 07:58:24;;;;;;;9.57;8.77;;;20.10;99.90;;;;;;4973485;28;20202;-80
2023/09/20 08:00:52;;;;;;;8.47;7.83;;;20.20;99.90;;;;;;4970566;28;20225;-80
2023/09/20 08:03:20;;;;;;;8.90;8.23;;;20.30;99.90;;;;;;4973369;28;20198;-80
2023/09/20 08:05:56;;;;;;;8.67;7.77;;;20.40;99.90;;;;;;4971482;28;20212;-80
2023/09/20 08:08:24;;;;;;;8.23;7.57;;;20.40;99.90;;;;;;4971125;28;20205;-80
2023/09/20 08:10:52;;;;;;;8.50;7.90;;;20.30;99.90;;;;;;4973658;28;20222;-80
2023/09/20 08:13:18;;;;;;;6.43;5.83;;;20.50;99.90;;;;;;4971588;28;20233;-80
2023/09/20 08:15:46;;;;;;;8.80;7.20;;;20.70;99.90;;;;;;4968604;28;20241;-80
2023/09/20 08:20:57;;;;;;;4.80;4.50;;;20.60;99.90;;;;;;4980614;28;20308;-81
2023/09/20 09:02:13;;;;;;;10.40;7.93;;;24.30;99.90;;;;;;4976302;28;20193;-82
2023/09/20 09:04:40;;;;;;;6.50;5.90;;;24.50;99.90;;;;;;4968269;28;20200;-81
2023/09/20 09:07:07;;;;;;;4.77;3.43;;;24.80;99.90;;;;;;4973220;28;20202;-81
2023/09/20 09:09:34;;;;;;;7.57;7.00;;;25.10;99.90;;;;;;4969576;28;20226;-81
2023/09/20 09:12:02;;;;;;;3.27;3.00;;;25.20;99.90;;;;;;4969328;28;20210;-80
2023/09/20 09:14:29;;;;;;;8.07;7.37;;;25.40;99.90;;;;;;4972993;28;20250;-79
2023/09/20 09:17:02;;;;;;;4.30;2.70;;;25.50;99.90;;;;;;4981191;28;20618;-80
2023/09/20 09:19:28;;;;;;;3.50;2.70;;;25.80;99.90;;;;;;4982973;28;20324;-80
2023/09/20 09:21:56;;;;;;;3.63;2.70;;;25.80;99.90;;;;;;4974178;28;20261;-80
2023/09/20 09:24:23;;;;;;;6.53;6.03;;;25.80;99.90;;;;;;4975346;28;20236;-80
2023/09/20 09:26:50;;;;;;;6.00;5.50;;;26.00;99.90;;;;;;4975514;28;20214;-80
2023/09/20 09:29:20;;;;;;;9.03;8.33;;;26.30;99.90;;;;;;4967558;28;20739;-81
2023/09/20 09:31:49;;;;;;;8.70;8.10;;;26.20;99.90;;;;;;4974686;28;20672;-80
2023/09/20 09:34:18;;;;;;;7.97;7.27;;;26.20;99.90;;;;;;4971270;28;20267;-80
2023/09/20 09:36:45;;;;;;;8.20;7.70;;;26.20;99.90;;;;;;4980146;28;20265;-81
2023/09/20 09:39:14;;;;;;;7.07;6.57;;;26.30;99.90;;;;;;4978517;28;20213;-79
2023/09/20 09:41:42;;;;;;;4.00;3.70;;;26.40;99.90;;;;;;4973766;28;20198;-81
2023/09/20 09:44:10;;;;;;;7.07;6.57;;;26.50;99.90;;;;;;4974634;28;20206;-78
2023/09/20 09:46:39;;;;;;;7.80;7.30;;;26.50;99.90;;;;;;4984117;28;20206;-81
2023/09/20 09:49:10;;;;;;;8.40;7.50;;;26.40;99.90;;;;;;4974986;28;20728;-80
2023/09/20 09:51:42;;;;;;;7.93;7.30;;;26.30;99.90;;;;;;4975186;28;20661;-80
2023/09/20 09:54:10;;;;;;;8.27;7.60;;;26.10;99.90;;;;;;4977458;28;20201;-82
2023/09/20 09:56:38;;;;;;;7.73;7.23;;;26.00;99.90;;;;;;4974691;28;20696;-80
2023/09/20 09:59:05;;;;;;;7.97;7.47;;;26.10;99.90;;;;;;4975521;28;20264;-80
2023/09/20 10:01:36;;;;;;;8.30;7.70;;;25.90;99.90;;;;;;4965555;28;20669;-79
2023/09/20 10:04:07;;;;;;;8.33;7.63;;;25.70;99.90;;;;;;4961790;28;20233;-78
2023/09/20 10:06:37;;;;;;;7.90;7.40;;;25.60;99.90;;;;;;4975701;28;20266;-83
2023/09/20 10:09:10;;;;;;;5.70;5.30;;;25.70;99.90;;;;;;4973595;28;20221;-82
2023/09/20 10:11:37;;;;;;;7.03;6.53;;;25.70;99.90;;;;;;4972468;28;20661;-82
2023/09/20 10:14:07;;;;;;;8.00;7.50;;;25.80;99.90;;;;;;4973597;28;20257;-83
2023/09/20 10:16:35;;;;;;;2.50;2.30;;;25.50;99.90;;;;;;4975043;28;20214;-78
2023/09/20 10:19:08;;;;;;;2.57;2.33;;;25.50;99.90;;;;;;4975872;28;20198;-81
2023/09/20 10:21:40;;;;;;;3.73;3.43;;;25.30;99.90;;;;;;4979131;28;20206;-80
2023/09/20 10:24:17;;;;;;;2.40;2.20;;;25.30;99.90;;;;;;4967419;28;20587;-80
2023/09/20 10:26:44;;;;;;;5.90;5.50;;;25.20;99.90;;;;;;4990104;28;20746;-81
2023/09/20 10:29:27;;;;;;;2.67;2.30;;;25.10;99.90;;;;;;4984787;28;20226;-81
2023/09/20 10:32:13;;;;;;;3.40;3.20;;;25.10;99.90;;;;;;4990212;28;20211;-81
2023/09/20 10:34:42;;;;;;;6.87;6.37;;;25.10;99.90;;;;;;4982133;28;20196;-81
2023/09/20 10:37:10;;;;;;;7.00;6.50;;;25.00;99.90;;;;;;4982312;28;20198;-81
2023/09/20 10:39:39;;;;;;;7.20;6.70;;;25.10;99.90;;;;;;4978830;28;20218;-81
2023/09/20 10:42:13;;;;;;;6.73;6.33;;;25.10;99.90;;;;;;4980509;28;20296;-81
2023/09/20 10:44:42;;;;;;;5.90;5.50;;;25.10;99.90;;;;;;4983484;28;20197;-81
2023/09/20 10:47:11;;;;;;;6.70;6.30;;;25.10;99.90;;;;;;4979769;28;20280;-81
2023/09/20 10:49:47;;;;;;;6.80;6.30;;;25.00;99.90;;;;;;4991253;28;20229;-81
2023/09/20 10:52:38;;;;;;;6.37;5.97;;;25.00;99.90;;;;;;4980308;28;20259;-81
2023/09/20 10:55:36;;;;;;;6.77;6.27;;;24.90;99.90;;;;;;4968650;28;20226;-82
2023/09/20 10:58:04;;;;;;;6.60;6.17;;;24.80;99.90;;;;;;4968883;28;20238;-82
2023/09/20 11:00:34;;;;;;;7.40;6.90;;;24.70;99.90;;;;;;4971904;28;20708;-81
2023/09/20 11:03:06;;;;;;;7.30;6.80;;;24.60;99.90;;;;;;4968746;28;20205;-81
2023/09/20 11:05:35;;;;;;;6.57;6.07;;;24.40;99.90;;;;;;4973929;28;20205;-82
2023/09/20 11:08:07;;;;;;;6.40;6.00;;;24.30;99.90;;;;;;4981780;28;20249;-80
2023/09/20 11:10:34;;;;;;;6.90;6.50;;;24.30;99.90;;;;;;4987606;28;20455;-81
2023/09/20 11:13:02;;;;;;;6.63;6.23;;;24.30;99.90;;;;;;4989807;28;20253;-80
2023/09/20 11:15:29;;;;;;;6.40;6.00;;;24.40;99.90;;;;;;4983393;28;20210;-82
2023/09/20 11:17:56;;;;;;;6.80;6.40;;;24.40;99.90;;;;;;4964928;28;20220;-82
2023/09/20 11:20:24;;;;;;;6.67;6.17;;;24.40;99.90;;;;;;4975209;28;20244;-81
2023/09/20 11:22:52;;;;;;;2.53;2.37;;;24.40;99.90;;;;;;4983074;28;20213;-81
2023/09/20 11:25:20;;;;;;;6.07;5.67;;;24.40;99.90;;;;;;4990656;28;20680;-81
2023/09/20 11:27:47;;;;;;;6.10;5.80;;;24.50;99.90;;;;;;4989018;28;20189;-81
2023/09/20 11:30:15;;;;;;;6.30;5.90;;;24.50;99.90;;;;;;4981734;28;20228;-81
2023/09/20 11:32:42;;;;;;;5.90;5.50;;;24.50;99.90;;;;;;4989230;28;20197;-82
2023/09/20 11:35:09;;;;;;;6.60;6.10;;;24.40;99.90;;;;;;4980352;28;20222;-83
2023/09/20 11:37:36;;;;;;;6.87;6.37;;;24.30;99.90;;;;;;4987453;28;20197;-82
2023/09/20 11:40:06;;;;;;;6.60;6.20;;;24.20;99.90;;;;;;4981535;28;20336;-82
2023/09/20 11:42:34;;;;;;;2.23;2.10;;;24.30;99.90;;;;;;4970044;28;20202;-80
2023/09/20 11:45:05;;;;;;;3.87;2.60;;;24.30;99.90;;;;;;4984099;28;20228;-81
2023/09/20 11:47:33;;;;;;;2.10;2.00;;;24.30;99.90;;;;;;4975673;28;20225;-80
2023/09/20 11:50:01;;;;;;;2.30;2.10;;;24.20;99.90;;;;;;4979718;28;20214;-81
2023/09/20 11:52:28;;;;;;;2.57;2.20;;;24.00;99.90;;;;;;4973329;28;20615;-82
2023/09/20 11:54:56;;;;;;;6.65;6.25;;;24.00;99.90;;;;;;4983236;28;20209;-81
2023/09/20 11:57:25;;;;;;;7.00;6.60;;;24.00;99.90;;;;;;4984448;28;20427;-80
2023/09/20 11:59:54;;;;;;;6.23;5.83;;;24.00;99.90;;;;;;4982319;28;20221;-79
2023/09/20 12:02:21;;;;;;;6.80;6.40;;;24.00;99.90;;;;;;4984266;28;20209;-82
2023/09/20 12:04:51;;;;;;;6.77;6.37;;;24.00;99.90;;;;;;4978298;28;20217;-81
2023/09/20 12:07:18;;;;;;;6.60;6.20;;;24.00;99.90;;;;;;4986675;28;20233;-81
2023/09/20 12:09:44;;;;;;;6.00;5.60;;;24.00;99.90;;;;;;4990002;28;20240;-82
2023/09/20 12:12:11;;;;;;;6.57;6.03;;;24.00;99.90;;;;;;4985666;28;20288;-81
2023/09/20 12:14:39;;;;;;;6.60;6.10;;;24.10;99.90;;;;;;4977511;28;20623;-81
2023/09/20 12:17:07;;;;;;;6.83;6.40;;;24.10;99.90;;;;;;4990121;28;20727;-80
2023/09/20 12:19:34;;;;;;;7.00;6.60;;;24.10;99.90;;;;;;4977409;28;20225;-82
2023/09/20 12:22:02;;;;;;;7.23;6.77;;;24.10;99.90;;;;;;4978717;28;20248;-81
2023/09/20 12:24:29;;;;;;;7.20;6.70;;;24.20;99.90;;;;;;4987480;28;20578;-81
2023/09/20 12:26:56;;;;;;;7.20;6.60;;;24.20;99.90;;;;;;4987601;28;20258;-81
2023/09/20 12:29:23;;;;;;;6.70;6.30;;;24.20;99.90;;;;;;4986863;28;20236;-81
2023/09/20 12:31:52;;;;;;;6.93;6.53;;;24.20;99.90;;;;;;4979213;28;20213;-81
2023/09/20 12:34:20;;;;;;;4.40;4.20;;;24.20;99.90;;;;;;4986227;28;20590;-81
2023/09/20 12:36:48;;;;;;;6.10;5.70;;;24.20;99.90;;;;;;4978180;28;20241;-79
2023/09/20 12:39:16;;;;;;;6.70;6.30;;;24.10;99.90;;;;;;4980005;28;20288;-80
2023/09/20 12:41:42;;;;;;;7.10;6.60;;;24.10;99.90;;;;;;4986901;28;20209;-81
2023/09/20 12:44:11;;;;;;;6.37;5.97;;;24.00;99.90;;;;;;4980757;28;20213;-80
2023/09/20 12:46:38;;;;;;;6.50;6.10;;;24.00;99.90;;;;;;4984912;28;20198;-81
2023/09/20 12:49:07;;;;;;;6.40;6.03;;;24.00;99.90;;;;;;4982381;28;20672;-81
2023/09/20 12:51:34;;;;;;;6.53;6.13;;;24.10;99.90;;;;;;4979385;28;20200;-81
2023/09/20 12:54:04;;;;;;;6.43;6.03;;;24.10;99.90;;;;;;4984382;28;20197;-81
2023/09/20 12:56:31;;;;;;;6.20;5.90;;;24.00;99.90;;;;;;4987863;28;20224;-82
2023/09/20 12:58:57;;;;;;;6.60;6.10;;;24.10;99.90;;;;;;4984436;28;20208;-81
2023/09/20 13:01:24;;;;;;;6.37;5.97;;;24.10;99.90;;;;;;4984800;28;20213;-80
2023/09/20 13:03:58;;;;;;;5.93;5.53;;;24.10;99.90;;;;;;4989050;28;20341;-80
2023/09/20 13:06:28;;;;;;;6.60;6.20;;;24.10;99.90;;;;;;4978934;28;20214;-81
2023/09/20 13:08:55;;;;;;;6.40;6.00;;;24.10;99.90;;;;;;4975272;28;20221;-79
2023/09/20 13:11:23;;;;;;;6.30;5.90;;;24.10;99.90;;;;;;4990077;28;20221;-80
2023/09/20 13:13:50;;;;;;;6.20;5.80;;;24.10;99.90;;;;;;4969776;28;20221;-81
2023/09/20 13:16:17;;;;;;;6.23;5.83;;;24.10;99.90;;;;;;4970639;28;20662;-81
2023/09/20 13:18:44;;;;;;;6.00;5.60;;;24.00;99.90;;;;;;4974548;28;20297;-81
2023/09/20 13:21:10;;;;;;;6.70;6.30;;;24.00;99.90;;;;;;4972515;28;20253;-82
2023/09/20 13:23:38;;;;;;;6.47;6.07;;;24.00;99.90;;;;;;4973552;28;20217;-81
2023/09/20 13:26:05;;;;;;;5.83;5.50;;;24.00;99.90;;;;;;4980910;28;20221;-81
2023/09/20 13:28:32;;;;;;;6.30;5.90;;;24.10;99.90;;;;;;4964131;28;20192;-80
2023/09/20 13:31:01;;;;;;;6.67;6.27;;;24.10;99.90;;;;;;4968488;28;20712;-80
2023/09/20 13:33:28;;;;;;;7.00;6.50;;;24.00;99.90;;;;;;4974573;28;20201;-80